sensor_id;sensor_type;location;lat;lon;timestamp;temperature;humidity
4207;DHT22;2117;47.972;7.830;2023-07-22T01:00:43;15.00;99.90
4207;DHT22;2117;47.972;7.830;2023-07-22T01:03:09;15.00;99.90
4207;DHT22;2117;47.972;7.830;2023-07-22T01:05:35;15.00;99.90
4207;DHT22;2117;47.972;7.830;2023-07-22T01:08:02;15.00;99.90
4207;DHT22;2117;47.972;7.830;2023-07-22T01:10:28;14.90;99.90
4207;DHT22;2117;47.972;7.830;2023-07-22T01:12:55;15.00;99.90
4207;DHT22;2117;47.972;7.830;2023-07-22T01:15:21;14.90;99.90
4207;DHT22;2117;47.972;7.830;2023-07-22T01:17:47;14.90;99.90
4207;DHT22;2117;47.972;7.830;2023-07-22T01:20:13;14.90;99.90
4207;DHT22;2117;47.972;7.830;2023-07-22T01:22:41;14.90;99.90
4207;DHT22;2117;47.972;7.830;2023-07-22T01:27:52;14.80;99.90
4207;DHT22;2117;47.972;7.830;2023-07-22T01:30:19;14.80;99.90
4207;DHT22;2117;47.972;7.830;2023-07-22T01:32:45;14.80;99.90
4207;DHT22;2117;47.972;7.830;2023-07-22T01:35:11;14.80;99.90
4207;DHT22;2117;47.972;7.830;2023-07-22T01:37:36;14.80;99.90
4207;DHT22;2117;47.972;7.830;2023-07-22T01:40:03;14.70;99.90
4207;DHT22;2117;47.972;7.830;2023-07-22T01:42:41;14.70;99.90
4207;DHT22;2117;47.972;7.830;2023-07-22T01:45:08;14.70;99.90
4207;DHT22;2117;47.972;7.830;2023-07-22T01:47:35;14.70;99.90
4207;DHT22;2117;47.972;7.830;2023-07-22T01:50:02;14.60;99.90
4207;DHT22;2117;47.972;7.830;2023-07-22T01:52:27;14.70;99.90
4207;DHT22;2117;47.972;7.830;2023-07-22T01:54:53;14.70;99.90
4207;DHT22;2117;47.972;7.830;2023-07-22T01:57:19;14.70;99.90
4207;DHT22;2117;47.972;7.830;2023-07-22T01:59:44;14.70;99.90
4207;DHT22;2117;47.972;7.830;2023-07-22T02:02:10;14.70;99.90
4207;DHT22;2117;47.972;7.830;2023-07-22T02:04:35;14.70;99.90
4207;DHT22;2117;47.972;7.830;2023-07-22T02:07:01;14.70;99.90
4207;DHT22;2117;47.972;7.830;2023-07-22T02:09:26;14.70;99.90
4207;DHT22;2117;47.972;7.830;2023-07-22T02:11:52;14.80;99.90
4207;DHT22;2117;47.972;7.830;2023-07-22T02:14:19;14.80;99.90
4207;DHT22;2117;47.972;7.830;2023-07-22T02:16:44;14.80;99.90
4207;DHT22;2117;47.972;7.830;2023-07-22T02:19:10;14.80;99.90
4207;DHT22;2117;47.972;7.830;2023-07-22T02:21:36;14.80;99.90
4207;DHT22;2117;47.972;7.830;2023-07-22T02:24:01;14.90;99.90
4207;DHT22;2117;47.972;7.830;2023-07-22T02:26:27;14.80;99.90
4207;DHT22;2117;47.972;7.830;2023-07-22T02:28:53;14.90;99.90
4207;DHT22;2117;47.972;7.830;2023-07-22T02:31:19;14.90;99.90
4207;DHT22;2117;47.972;7.830;2023-07-22T02:33:47;14.90;99.90
4207;DHT22;2117;47.972;7.830;2023-07-22T02:36:13;14.90;99.90
4207;DHT22;2117;47.972;7.830;2023-07-22T02:38:38;14.90;99.90
4207;DHT22;2117;47.972;7.830;2023-07-22T02:41:04;14.80;99.90
4207;DHT22;2117;47.972;7.830;2023-07-22T02:43:32;14.80;99.90
4207;DHT22;2117;47.972;7.830;2023-07-22T02:46:03;14.80;99.90
4207;DHT22;2117;47.972;7.830;2023-07-22T02:48:30;14.80;99.90
4207;DHT22;2117;47.972;7.830;2023-07-22T02:51:05;14.80;99.90
4207;DHT22;2117;47.972;7.830;2023-07-22T02:53:32;14.80;99.90
4207;DHT22;2117;47.972;7.830;2023-07-22T02:55:58;14.80;99.90
4207;DHT22;2117;47.972;7.830;2023-07-22T02:58:24;14.80;99.90
4207;DHT22;2117;47.972;7.830;2023-07-22T03:00:50;14.80;99.90
4207;DHT22;2117;47.972;7.830;2023-07-22T03:03:15;14.80;99.90
4207;DHT22;2117;47.972;7.830;2023-07-22T03:05:41;14.70;99.90
4207;DHT22;2117;47.972;7.830;2023-07-22T03:08:06;14.70;99.90
4207;DHT22;2117;47.972;7.830;2023-07-22T03:10:32;14.60;99.90
4207;DHT22;2117;47.972;7.830;2023-07-22T03:12:58;14.60;99.90
4207;DHT22;2117;47.972;7.830;2023-07-22T03:15:25;14.70;99.90
4207;DHT22;2117;47.972;7.830;2023-07-22T03:17:54;14.60;99.90
4207;DHT22;2117;47.972;7.830;2023-07-22T03:20:27;14.60;99.90
4207;DHT22;2117;47.972;7.830;2023-07-22T03:22:52;14.60;99.90
4207;DHT22;2117;47.972;7.830;2023-07-22T03:25:19;14.50;99.90
4207;DHT22;2117;47.972;7.830;2023-07-22T03:27:46;14.50;99.90
4207;DHT22;2117;47.972;7.830;2023-07-22T03:30:16;14.50;99.90
4207;DHT22;2117;47.972;7.830;2023-07-22T03:32:43;14.50;99.90
4207;DHT22;2117;47.972;7.830;2023-07-22T03:35:09;14.40;99.90
4207;DHT22;2117;47.972;7.830;2023-07-22T03:37:36;14.40;99.90
4207;DHT22;2117;47.972;7.830;2023-07-22T03:40:03;14.40;99.90
4207;DHT22;2117;47.972;7.830;2023-07-22T03:42:32;14.40;99.90
4207;DHT22;2117;47.972;7.830;2023-07-22T03:44:58;14.30;99.90
4207;DHT22;2117;47.972;7.830;2023-07-22T03:47:23;14.30;99.90
4207;DHT22;2117;47.972;7.830;2023-07-22T03:49:49;14.40;99.90
4207;DHT22;2117;47.972;7.830;2023-07-22T03:52:14;14.30;99.90
4207;DHT22;2117;47.972;7.830;2023-07-22T03:54:43;14.30;99.90
4207;DHT22;2117;47.972;7.830;2023-07-22T03:57:09;14.30;99.90
4207;DHT22;2117;47.972;7.830;2023-07-22T03:59:35;14.30;99.90
4207;DHT22;2117;47.972;7.830;2023-07-22T04:02:01;14.20;99.90
4207;DHT22;2117;47.972;7.830;2023-07-22T04:04:26;14.30;99.90
4207;DHT22;2117;47.972;7.830;2023-07-22T04:06:52;14.20;99.90
4207;DHT22;2117;47.972;7.830;2023-07-22T04:09:17;14.30;99.90
4207;DHT22;2117;47.972;7.830;2023-07-22T04:11:43;14.30;99.90
4207;DHT22;2117;47.972;7.830;2023-07-22T04:14:08;14.30;99.90
4207;DHT22;2117;47.972;7.830;2023-07-22T04:16:34;14.30;99.90
4207;DHT22;2117;47.972;7.830;2023-07-22T04:18:59;14.20;99.90
4207;DHT22;2117;47.972;7.830;2023-07-22T04:21:25;14.20;99.90
4207;DHT22;2117;47.972;7.830;2023-07-22T04:23:50;14.30;99.90
4207;DHT22;2117;47.972;7.830;2023-07-22T04:26:16;14.20;99.90
4207;DHT22;2117;47.972;7.830;2023-07-22T04:28:42;14.30;99.90
4207;DHT22;2117;47.972;7.830;2023-07-22T04:31:08;14.20;99.90
4207;DHT22;2117;47.972;7.830;2023-07-22T04:33:34;14.20;99.90
4207;DHT22;2117;47.972;7.830;2023-07-22T04:36:00;14.20;99.90
4207;DHT22;2117;47.972;7.830;2023-07-22T04:38:26;14.30;99.90
4207;DHT22;2117;47.972;7.830;2023-07-22T04:40:52;14.20;99.90
4207;DHT22;2117;47.972;7.830;2023-07-22T04:43:17;14.20;99.90
4207;DHT22;2117;47.972;7.830;2023-07-22T04:45:46;14.20;99.90
4207;DHT22;2117;47.972;7.830;2023-07-22T04:48:16;14.20;99.90
4207;DHT22;2117;47.972;7.830;2023-07-22T04:50:42;14.20;99.90
4207;DHT22;2117;47.972;7.830;2023-07-22T04:53:10;14.30;99.90
4207;DHT22;2117;47.972;7.830;2023-07-22T04:55:38;14.30;99.90
4207;DHT22;2117;47.972;7.830;2023-07-22T04:58:04;14.60;99.90
4207;DHT22;2117;47.972;7.830;2023-07-22T05:00:30;15.40;99.90
4207;DHT22;2117;47.972;7.830;2023-07-22T05:02:55;15.40;99.90
4207;DHT22;2117;47.972;7.830;2023-07-22T05:05:21;15.80;99.90
4207;DHT22;2117;47.972;7.830;2023-07-22T05:07:47;16.20;99.90
4207;DHT22;2117;47.972;7.830;2023-07-22T05:10:15;16.70;99.90
4207;DHT22;2117;47.972;7.830;2023-07-22T05:12:42;16.70;99.90
4207;DHT22;2117;47.972;7.830;2023-07-22T05:15:09;16.90;99.90
4207;DHT22;2117;47.972;7.830;2023-07-22T05:17:35;17.10;99.90
4207;DHT22;2117;47.972;7.830;2023-07-22T05:20:00;17.30;99.90
4207;DHT22;2117;47.972;7.830;2023-07-22T05:22:26;17.50;99.90
4207;DHT22;2117;47.972;7.830;2023-07-22T05:24:51;17.60;99.90
4207;DHT22;2117;47.972;7.830;2023-07-22T05:27:18;17.70;99.90
4207;DHT22;2117;47.972;7.830;2023-07-22T05:29:43;17.70;99.90
4207;DHT22;2117;47.972;7.830;2023-07-22T05:32:10;17.70;99.90
4207;DHT22;2117;47.972;7.830;2023-07-22T05:34:36;17.90;99.90
4207;DHT22;2117;47.972;7.830;2023-07-22T05:37:01;18.00;99.90
4207;DHT22;2117;47.972;7.830;2023-07-22T05:39:27;18.10;99.90
4207;DHT22;2117;47.972;7.830;2023-07-22T05:41:52;18.30;99.90
4207;DHT22;2117;47.972;7.830;2023-07-22T05:44:18;18.40;99.90
4207;DHT22;2117;47.972;7.830;2023-07-22T05:46:44;18.50;99.90
4207;DHT22;2117;47.972;7.830;2023-07-22T05:49:09;18.60;99.90
4207;DHT22;2117;47.972;7.830;2023-07-22T05:51:36;18.80;99.90
4207;DHT22;2117;47.972;7.830;2023-07-22T05:54:02;18.80;99.90
4207;DHT22;2117;47.972;7.830;2023-07-22T05:56:27;18.90;99.90
4207;DHT22;2117;47.972;7.830;2023-07-22T05:58:53;19.00;99.90
4207;DHT22;2117;47.972;7.830;2023-07-22T06:01:18;19.10;99.90
4207;DHT22;2117;47.972;7.830;2023-07-22T06:03:44;19.20;99.90
4207;DHT22;2117;47.972;7.830;2023-07-22T06:06:10;19.20;99.90
4207;DHT22;2117;47.972;7.830;2023-07-22T06:08:35;19.30;99.90
4207;DHT22;2117;47.972;7.830;2023-07-22T06:11:01;19.30;99.90
4207;DHT22;2117;47.972;7.830;2023-07-22T06:13:27;19.40;99.90
4207;DHT22;2117;47.972;7.830;2023-07-22T06:15:53;19.50;99.90
4207;DHT22;2117;47.972;7.830;2023-07-22T06:18:18;19.50;99.90
4207;DHT22;2117;47.972;7.830;2023-07-22T06:20:44;19.50;99.90
4207;DHT22;2117;47.972;7.830;2023-07-22T06:23:10;19.50;99.90
4207;DHT22;2117;47.972;7.830;2023-07-22T06:25:36;19.60;99.90
4207;DHT22;2117;47.972;7.830;2023-07-22T06:28:01;19.70;99.90
4207;DHT22;2117;47.972;7.830;2023-07-22T06:30:27;20.00;99.90
4207;DHT22;2117;47.972;7.830;2023-07-22T06:32:52;19.70;99.90
4207;DHT22;2117;47.972;7.830;2023-07-22T06:35:18;19.80;99.90
4207;DHT22;2117;47.972;7.830;2023-07-22T06:37:44;19.90;99.90
4207;DHT22;2117;47.972;7.830;2023-07-22T06:40:10;19.90;99.90
4207;DHT22;2117;47.972;7.830;2023-07-22T06:42:36;20.00;99.90
4207;DHT22;2117;47.972;7.830;2023-07-22T06:45:02;20.00;99.90
4207;DHT22;2117;47.972;7.830;2023-07-22T06:47:28;19.80;99.90
4207;DHT22;2117;47.972;7.830;2023-07-22T06:49:53;19.60;99.90
4207;DHT22;2117;47.972;7.830;2023-07-22T06:52:19;19.40;99.90
4207;DHT22;2117;47.972;7.830;2023-07-22T06:54:44;19.20;99.90
4207;DHT22;2117;47.972;7.830;2023-07-22T06:57:10;19.10;99.90
4207;DHT22;2117;47.972;7.830;2023-07-22T06:59:35;19.10;99.90
4207;DHT22;2117;47.972;7.830;2023-07-22T07:02:02;19.00;99.90
4207;DHT22;2117;47.972;7.830;2023-07-22T07:04:27;19.00;99.90
4207;DHT22;2117;47.972;7.830;2023-07-22T07:06:54;19.00;99.90
4207;DHT22;2117;47.972;7.830;2023-07-22T07:09:19;19.00;99.90
4207;DHT22;2117;47.972;7.830;2023-07-22T07:11:45;19.10;99.90
4207;DHT22;2117;47.972;7.830;2023-07-22T07:14:10;19.10;99.90
4207;DHT22;2117;47.972;7.830;2023-07-22T07:16:36;19.10;99.90
4207;DHT22;2117;47.972;7.830;2023-07-22T07:19:02;19.20;99.90
4207;DHT22;2117;47.972;7.830;2023-07-22T07:21:28;19.40;99.90
4207;DHT22;2117;47.972;7.830;2023-07-22T07:23:54;19.40;99.90
4207;DHT22;2117;47.972;7.830;2023-07-22T07:26:20;19.50;99.90
4207;DHT22;2117;47.972;7.830;2023-07-22T07:28:50;19.70;99.90
4207;DHT22;2117;47.972;7.830;2023-07-22T07:31:19;19.80;99.90
4207;DHT22;2117;47.972;7.830;2023-07-22T07:33:44;19.90;99.90
4207;DHT22;2117;47.972;7.830;2023-07-22T07:36:10;20.10;99.90
4207;DHT22;2117;47.972;7.830;2023-07-22T07:38:36;20.20;99.90
4207;DHT22;2117;47.972;7.830;2023-07-22T07:41:03;20.30;99.90
4207;DHT22;2117;47.972;7.830;2023-07-22T07:43:29;20.40;99.90
4207;DHT22;2117;47.972;7.830;2023-07-22T07:46:18;20.60;99.90
4207;DHT22;2117;47.972;7.830;2023-07-22T07:48:46;20.70;99.90
4207;DHT22;2117;47.972;7.830;2023-07-22T07:51:13;20.80;99.90
4207;DHT22;2117;47.972;7.830;2023-07-22T07:53:39;21.00;99.90
4207;DHT22;2117;47.972;7.830;2023-07-22T07:56:06;21.10;99.90
4207;DHT22;2117;47.972;7.830;2023-07-22T07:58:32;21.10;99.90
4207;DHT22;2117;47.972;7.830;2023-07-22T08:00:57;21.10;99.90
4207;DHT22;2117;47.972;7.830;2023-07-22T08:03:23;21.10;99.90
4207;DHT22;2117;47.972;7.830;2023-07-22T08:05:49;21.20;99.90
4207;DHT22;2117;47.972;7.830;2023-07-22T08:08:14;21.20;99.90
4207;DHT22;2117;47.972;7.830;2023-07-22T08:10:40;21.20;99.90
4207;DHT22;2117;47.972;7.830;2023-07-22T08:13:06;21.30;99.90
4207;DHT22;2117;47.972;7.830;2023-07-22T08:15:31;21.40;99.90
4207;DHT22;2117;47.972;7.830;2023-07-22T08:17:57;21.50;99.90
4207;DHT22;2117;47.972;7.830;2023-07-22T08:20:22;21.60;99.90
4207;DHT22;2117;47.972;7.830;2023-07-22T08:22:48;21.60;99.90
4207;DHT22;2117;47.972;7.830;2023-07-22T08:25:13;21.60;99.90
4207;DHT22;2117;47.972;7.830;2023-07-22T08:27:39;21.60;99.90
4207;DHT22;2117;47.972;7.830;2023-07-22T08:30:05;21.60;99.90
4207;DHT22;2117;47.972;7.830;2023-07-22T08:32:31;21.60;99.90
4207;DHT22;2117;47.972;7.830;2023-07-22T08:34:56;21.70;99.90
4207;DHT22;2117;47.972;7.830;2023-07-22T08:37:22;21.70;99.90
4207;DHT22;2117;47.972;7.830;2023-07-22T08:39:47;21.80;99.90
4207;DHT22;2117;47.972;7.830;2023-07-22T08:42:15;21.90;99.90
4207;DHT22;2117;47.972;7.830;2023-07-22T08:44:43;22.00;99.90
4207;DHT22;2117;47.972;7.830;2023-07-22T08:47:15;22.10;99.90
4207;DHT22;2117;47.972;7.830;2023-07-22T08:49:46;22.30;99.90
4207;DHT22;2117;47.972;7.830;2023-07-22T08:52:14;22.40;99.90
4207;DHT22;2117;47.972;7.830;2023-07-22T08:54:41;22.40;99.90
4207;DHT22;2117;47.972;7.830;2023-07-22T08:57:08;22.50;99.90
4207;DHT22;2117;47.972;7.830;2023-07-22T08:59:35;22.50;99.90
4207;DHT22;2117;47.972;7.830;2023-07-22T09:02:01;22.50;99.90
4207;DHT22;2117;47.972;7.830;2023-07-22T09:04:27;22.60;99.90
4207;DHT22;2117;47.972;7.830;2023-07-22T09:06:53;22.60;99.90
4207;DHT22;2117;47.972;7.830;2023-07-22T09:09:21;22.80;99.90
4207;DHT22;2117;47.972;7.830;2023-07-22T09:11:48;22.80;99.90
4207;DHT22;2117;47.972;7.830;2023-07-22T09:14:13;23.00;99.90
4207;DHT22;2117;47.972;7.830;2023-07-22T09:16:39;23.00;99.20
4207;DHT22;2117;47.972;7.830;2023-07-22T09:19:05;23.00;98.90
4207;DHT22;2117;47.972;7.830;2023-07-22T09:21:31;23.10;99.20
4207;DHT22;2117;47.972;7.830;2023-07-22T09:24:01;23.20;99.70
4207;DHT22;2117;47.972;7.830;2023-07-22T09:26:26;23.20;99.20
4207;DHT22;2117;47.972;7.830;2023-07-22T09:28:55;23.30;98.50
4207;DHT22;2117;47.972;7.830;2023-07-22T09:31:23;23.50;97.70
4207;DHT22;2117;47.972;7.830;2023-07-22T09:33:49;23.50;97.80
4207;DHT22;2117;47.972;7.830;2023-07-22T09:36:16;23.60;98.30
4207;DHT22;2117;47.972;7.830;2023-07-22T09:38:41;23.90;98.10
4207;DHT22;2117;47.972;7.830;2023-07-22T09:41:07;24.10;97.40
4207;DHT22;2117;47.972;7.830;2023-07-22T09:43:38;24.20;97.10
4207;DHT22;2117;47.972;7.830;2023-07-22T09:46:11;24.00;96.70
4207;DHT22;2117;47.972;7.830;2023-07-22T09:48:41;23.90;96.90
4207;DHT22;2117;47.972;7.830;2023-07-22T09:51:11;24.00;94.90
4207;DHT22;2117;47.972;7.830;2023-07-22T09:53:37;24.10;95.80
4207;DHT22;2117;47.972;7.830;2023-07-22T09:56:06;24.20;95.80
4207;DHT22;2117;47.972;7.830;2023-07-22T09:58:32;24.40;94.50
4207;DHT22;2117;47.972;7.830;2023-07-22T10:00:59;24.30;94.50
4207;DHT22;2117;47.972;7.830;2023-07-22T10:03:29;24.20;94.70
4207;DHT22;2117;47.972;7.830;2023-07-22T10:05:59;24.20;94.60
4207;DHT22;2117;47.972;7.830;2023-07-22T10:08:26;24.20;94.60
4207;DHT22;2117;47.972;7.830;2023-07-22T10:10:57;24.40;95.00
4207;DHT22;2117;47.972;7.830;2023-07-22T10:13:24;24.70;94.70
4207;DHT22;2117;47.972;7.830;2023-07-22T10:15:49;25.00;94.50
4207;DHT22;2117;47.972;7.830;2023-07-22T10:18:16;25.30;93.70
4207;DHT22;2117;47.972;7.830;2023-07-22T10:20:43;25.20;93.80
4207;DHT22;2117;47.972;7.830;2023-07-22T10:23:09;25.10;94.10
4207;DHT22;2117;47.972;7.830;2023-07-22T10:25:39;24.90;93.70
4207;DHT22;2117;47.972;7.830;2023-07-22T10:28:06;24.80;92.50
4207;DHT22;2117;47.972;7.830;2023-07-22T10:30:31;25.00;92.50
4207;DHT22;2117;47.972;7.830;2023-07-22T10:32:58;25.30;92.60
4207;DHT22;2117;47.972;7.830;2023-07-22T10:35:39;25.60;92.30
4207;DHT22;2117;47.972;7.830;2023-07-22T10:38:11;25.90;91.60
4207;DHT22;2117;47.972;7.830;2023-07-22T10:40:53;26.00;90.60
4207;DHT22;2117;47.972;7.830;2023-07-22T10:43:30;26.30;91.10
4207;DHT22;2117;47.972;7.830;2023-07-22T10:45:58;26.30;90.20
4207;DHT22;2117;47.972;7.830;2023-07-22T10:48:35;25.60;90.30
4207;DHT22;2117;47.972;7.830;2023-07-22T10:51:07;25.80;90.40
4207;DHT22;2117;47.972;7.830;2023-07-22T10:53:32;26.40;90.60
4207;DHT22;2117;47.972;7.830;2023-07-22T10:56:15;27.00;91.00
4207;DHT22;2117;47.972;7.830;2023-07-22T11:04:23;27.00;89.30
4207;DHT22;2117;47.972;7.830;2023-07-22T11:07:05;27.00;88.20
4207;DHT22;2117;47.972;7.830;2023-07-22T11:12:04;27.90;85.10
4207;DHT22;2117;47.972;7.830;2023-07-22T11:14:52;27.80;84.20
4207;DHT22;2117;47.972;7.830;2023-07-22T11:17:27;27.80;86.60
4207;DHT22;2117;47.972;7.830;2023-07-22T11:19:54;28.50;83.20
4207;DHT22;2117;47.972;7.830;2023-07-22T11:22:20;29.10;80.50
4207;DHT22;2117;47.972;7.830;2023-07-22T11:24:45;29.10;80.50
4207;DHT22;2117;47.972;7.830;2023-07-22T11:27:12;29.20;80.00
4207;DHT22;2117;47.972;7.830;2023-07-22T11:29:37;29.50;80.00
4207;DHT22;2117;47.972;7.830;2023-07-22T11:32:03;29.60;78.40
4207;DHT22;2117;47.972;7.830;2023-07-22T11:34:29;29.20;76.70
4207;DHT22;2117;47.972;7.830;2023-07-22T11:36:56;29.40;77.80
4207;DHT22;2117;47.972;7.830;2023-07-22T11:39:24;29.80;77.90
4207;DHT22;2117;47.972;7.830;2023-07-22T11:41:51;29.90;78.80
4207;DHT22;2117;47.972;7.830;2023-07-22T11:44:21;30.50;78.60
4207;DHT22;2117;47.972;7.830;2023-07-22T11:49:35;31.00;73.00
4207;DHT22;2117;47.972;7.830;2023-07-22T11:52:09;30.80;71.50
4207;DHT22;2117;47.972;7.830;2023-07-22T11:54:39;31.10;73.60
4207;DHT22;2117;47.972;7.830;2023-07-22T11:57:17;31.80;74.20
4207;DHT22;2117;47.972;7.830;2023-07-22T11:59:47;32.00;75.00
4207;DHT22;2117;47.972;7.830;2023-07-22T12:02:20;32.30;73.80
4207;DHT22;2117;47.972;7.830;2023-07-22T12:04:54;32.50;71.60
4207;DHT22;2117;47.972;7.830;2023-07-22T12:07:27;31.50;70.80
4207;DHT22;2117;47.972;7.830;2023-07-22T12:09:55;31.00;72.60
4207;DHT22;2117;47.972;7.830;2023-07-22T12:12:20;31.40;72.40
4207;DHT22;2117;47.972;7.830;2023-07-22T12:14:46;31.20;72.10
4207;DHT22;2117;47.972;7.830;2023-07-22T12:17:11;31.70;74.10
4207;DHT22;2117;47.972;7.830;2023-07-22T12:19:37;32.40;70.60
4207;DHT22;2117;47.972;7.830;2023-07-22T12:22:03;32.00;71.40
4207;DHT22;2117;47.972;7.830;2023-07-22T12:24:29;31.10;69.40
4207;DHT22;2117;47.972;7.830;2023-07-22T12:26:54;30.60;70.10
4207;DHT22;2117;47.972;7.830;2023-07-22T12:29:20;31.10;68.60
4207;DHT22;2117;47.972;7.830;2023-07-22T12:31:47;30.90;69.30
4207;DHT22;2117;47.972;7.830;2023-07-22T12:34:13;31.00;70.60
4207;DHT22;2117;47.972;7.830;2023-07-22T12:36:39;31.30;70.10
4207;DHT22;2117;47.972;7.830;2023-07-22T12:39:05;32.30;69.90
4207;DHT22;2117;47.972;7.830;2023-07-22T12:41:30;32.70;68.30
4207;DHT22;2117;47.972;7.830;2023-07-22T12:43:56;32.10;67.70
4207;DHT22;2117;47.972;7.830;2023-07-22T12:46:22;32.10;69.20
4207;DHT22;2117;47.972;7.830;2023-07-22T12:48:48;32.60;69.40
4207;DHT22;2117;47.972;7.830;2023-07-22T12:51:14;32.00;67.40
4207;DHT22;2117;47.972;7.830;2023-07-22T12:53:39;32.80;68.50
4207;DHT22;2117;47.972;7.830;2023-07-22T12:56:05;33.50;68.90
4207;DHT22;2117;47.972;7.830;2023-07-22T12:58:31;34.90;68.20
4207;DHT22;2117;47.972;7.830;2023-07-22T13:00:57;34.30;65.30
4207;DHT22;2117;47.972;7.830;2023-07-22T13:03:22;34.00;66.10
4207;DHT22;2117;47.972;7.830;2023-07-22T13:05:48;34.60;65.20
4207;DHT22;2117;47.972;7.830;2023-07-22T13:08:13;35.40;64.30
4207;DHT22;2117;47.972;7.830;2023-07-22T13:10:39;34.80;63.50
4207;DHT22;2117;47.972;7.830;2023-07-22T13:13:09;34.00;62.60
4207;DHT22;2117;47.972;7.830;2023-07-22T13:15:34;34.30;65.80
4207;DHT22;2117;47.972;7.830;2023-07-22T13:18:00;33.70;63.10
4207;DHT22;2117;47.972;7.830;2023-07-22T13:20:26;32.70;64.70
4207;DHT22;2117;47.972;7.830;2023-07-22T13:22:51;33.40;67.20
4207;DHT22;2117;47.972;7.830;2023-07-22T13:25:17;34.30;64.20
4207;DHT22;2117;47.972;7.830;2023-07-22T13:27:43;33.90;64.00
4207;DHT22;2117;47.972;7.830;2023-07-22T13:30:08;33.60;62.10
4207;DHT22;2117;47.972;7.830;2023-07-22T13:32:34;32.50;64.20
4207;DHT22;2117;47.972;7.830;2023-07-22T13:35:00;32.90;63.50
4207;DHT22;2117;47.972;7.830;2023-07-22T13:37:25;33.50;64.70
4207;DHT22;2117;47.972;7.830;2023-07-22T13:39:51;33.70;63.10
4207;DHT22;2117;47.972;7.830;2023-07-22T13:42:16;34.00;64.30
4207;DHT22;2117;47.972;7.830;2023-07-22T13:44:42;34.00;62.50
4207;DHT22;2117;47.972;7.830;2023-07-22T13:47:07;33.40;62.90
4207;DHT22;2117;47.972;7.830;2023-07-22T13:49:33;33.80;65.90
4207;DHT22;2117;47.972;7.830;2023-07-22T13:51:58;35.10;61.50
4207;DHT22;2117;47.972;7.830;2023-07-22T13:54:24;35.10;61.60
4207;DHT22;2117;47.972;7.830;2023-07-22T13:56:49;35.00;61.80
4207;DHT22;2117;47.972;7.830;2023-07-22T13:59:15;34.20;59.30
4207;DHT22;2117;47.972;7.830;2023-07-22T14:01:40;32.60;61.20
4207;DHT22;2117;47.972;7.830;2023-07-22T14:04:06;32.90;61.50
4207;DHT22;2117;47.972;7.830;2023-07-22T14:06:32;33.90;62.00
4207;DHT22;2117;47.972;7.830;2023-07-22T14:09:00;34.80;59.80
4207;DHT22;2117;47.972;7.830;2023-07-22T14:11:26;33.80;59.80
4207;DHT22;2117;47.972;7.830;2023-07-22T14:13:51;33.40;60.50
4207;DHT22;2117;47.972;7.830;2023-07-22T14:16:18;33.90;60.80
4207;DHT22;2117;47.972;7.830;2023-07-22T14:18:43;34.60;65.10
4207;DHT22;2117;47.972;7.830;2023-07-22T14:21:09;35.20;63.30
4207;DHT22;2117;47.972;7.830;2023-07-22T14:23:37;35.00;59.40
4207;DHT22;2117;47.972;7.830;2023-07-22T14:26:02;35.40;60.30
4207;DHT22;2117;47.972;7.830;2023-07-22T14:28:28;35.30;58.90
4207;DHT22;2117;47.972;7.830;2023-07-22T14:30:54;35.70;59.10
4207;DHT22;2117;47.972;7.830;2023-07-22T14:33:19;36.30;58.00
4207;DHT22;2117;47.972;7.830;2023-07-22T14:35:45;36.80;58.30
4207;DHT22;2117;47.972;7.830;2023-07-22T14:38:10;36.40;59.20
4207;DHT22;2117;47.972;7.830;2023-07-22T14:40:36;36.50;59.00
4207;DHT22;2117;47.972;7.830;2023-07-22T14:43:02;36.60;58.40
4207;DHT22;2117;47.972;7.830;2023-07-22T14:45:28;36.70;58.50
4207;DHT22;2117;47.972;7.830;2023-07-22T14:47:53;36.70;58.50
4207;DHT22;2117;47.972;7.830;2023-07-22T14:50:19;36.70;57.30
4207;DHT22;2117;47.972;7.830;2023-07-22T14:52:44;36.40;58.20
4207;DHT22;2117;47.972;7.830;2023-07-22T14:55:10;36.70;58.60
4207;DHT22;2117;47.972;7.830;2023-07-22T14:57:35;36.60;58.80
4207;DHT22;2117;47.972;7.830;2023-07-22T15:00:01;36.30;55.00
4207;DHT22;2117;47.972;7.830;2023-07-22T15:02:27;36.70;55.80
4207;DHT22;2117;47.972;7.830;2023-07-22T15:04:52;36.90;55.10
4207;DHT22;2117;47.972;7.830;2023-07-22T15:07:18;37.00;56.80
4207;DHT22;2117;47.972;7.830;2023-07-22T15:09:43;37.30;56.50
4207;DHT22;2117;47.972;7.830;2023-07-22T15:12:09;37.50;52.70
4207;DHT22;2117;47.972;7.830;2023-07-22T15:14:36;37.50;54.60
4207;DHT22;2117;47.972;7.830;2023-07-22T15:17:02;36.60;54.30
4207;DHT22;2117;47.972;7.830;2023-07-22T15:19:27;37.20;55.80
4207;DHT22;2117;47.972;7.830;2023-07-22T15:21:53;37.10;55.00
4207;DHT22;2117;47.972;7.830;2023-07-22T15:24:19;37.10;55.90
4207;DHT22;2117;47.972;7.830;2023-07-22T15:26:45;36.50;55.10
4207;DHT22;2117;47.972;7.830;2023-07-22T15:29:11;35.60;56.60
4207;DHT22;2117;47.972;7.830;2023-07-22T15:31:36;35.70;54.80
4207;DHT22;2117;47.972;7.830;2023-07-22T15:34:02;36.10;53.90
4207;DHT22;2117;47.972;7.830;2023-07-22T15:36:27;35.90;54.00
4207;DHT22;2117;47.972;7.830;2023-07-22T15:38:53;36.30;53.70
4207;DHT22;2117;47.972;7.830;2023-07-22T15:41:18;35.90;55.60
4207;DHT22;2117;47.972;7.830;2023-07-22T15:43:44;35.90;54.90
4207;DHT22;2117;47.972;7.830;2023-07-22T15:46:09;35.90;56.30
4207;DHT22;2117;47.972;7.830;2023-07-22T15:48:35;36.60;55.50
4207;DHT22;2117;47.972;7.830;2023-07-22T15:51:00;36.90;55.00
4207;DHT22;2117;47.972;7.830;2023-07-22T15:53:26;36.20;53.20
4207;DHT22;2117;47.972;7.830;2023-07-22T15:55:52;36.10;54.50
4207;DHT22;2117;47.972;7.830;2023-07-22T15:58:17;36.10;54.40
4207;DHT22;2117;47.972;7.830;2023-07-22T16:00:45;34.80;54.90
4207;DHT22;2117;47.972;7.830;2023-07-22T16:03:10;34.30;55.10
4207;DHT22;2117;47.972;7.830;2023-07-22T16:05:37;34.40;55.10
4207;DHT22;2117;47.972;7.830;2023-07-22T16:08:03;34.60;56.30
4207;DHT22;2117;47.972;7.830;2023-07-22T16:10:29;34.40;55.80
4207;DHT22;2117;47.972;7.830;2023-07-22T16:12:56;34.40;54.80
4207;DHT22;2117;47.972;7.830;2023-07-22T16:15:23;34.40;55.90
4207;DHT22;2117;47.972;7.830;2023-07-22T16:17:49;33.90;56.10
4207;DHT22;2117;47.972;7.830;2023-07-22T16:20:14;33.20;57.30
4207;DHT22;2117;47.972;7.830;2023-07-22T16:22:40;31.70;57.70
4207;DHT22;2117;47.972;7.830;2023-07-22T16:25:06;31.60;58.80
4207;DHT22;2117;47.972;7.830;2023-07-22T16:27:32;31.60;59.50
4207;DHT22;2117;47.972;7.830;2023-07-22T16:29:57;30.70;59.30
4207;DHT22;2117;47.972;7.830;2023-07-22T16:32:23;29.50;60.30
4207;DHT22;2117;47.972;7.830;2023-07-22T16:34:48;29.40;61.90
4207;DHT22;2117;47.972;7.830;2023-07-22T16:37:14;29.30;63.30
4207;DHT22;2117;47.972;7.830;2023-07-22T16:39:39;29.10;63.80
4207;DHT22;2117;47.972;7.830;2023-07-22T16:42:06;28.90;64.10
4207;DHT22;2117;47.972;7.830;2023-07-22T16:44:32;28.90;65.20
4207;DHT22;2117;47.972;7.830;2023-07-22T16:46:57;28.90;65.30
4207;DHT22;2117;47.972;7.830;2023-07-22T16:49:23;28.80;65.50
4207;DHT22;2117;47.972;7.830;2023-07-22T16:51:49;28.30;65.60
4207;DHT22;2117;47.972;7.830;2023-07-22T16:54:14;28.30;66.30
4207;DHT22;2117;47.972;7.830;2023-07-22T16:56:40;28.20;66.00
4207;DHT22;2117;47.972;7.830;2023-07-22T16:59:07;27.80;66.90
4207;DHT22;2117;47.972;7.830;2023-07-22T17:01:32;27.90;67.70
4207;DHT22;2117;47.972;7.830;2023-07-22T17:03:58;27.80;66.80
4207;DHT22;2117;47.972;7.830;2023-07-22T17:06:23;27.80;67.90
4207;DHT22;2117;47.972;7.830;2023-07-22T17:08:49;27.80;68.00
4207;DHT22;2117;47.972;7.830;2023-07-22T17:11:15;27.60;68.10